Time;durP1;ratioP1;P1;durP2;ratioP2;P2;SDS_P1;SDS_P2;PMS_P1;PMS_P2;Temp;Humidity;BMP_temperature;BMP_pressure;BME280_temperature;BME280_humidity;BME280_pressure;Samples;Min_cycle;Max_cycle;Signal;HPM_P1;HPM_P2
2022/07/14 00:02:14;;;;;;;12.00;3.17;;;17.80;99.90;;;;;;7339632;32;20260;-62
2022/07/14 00:06:16;;;;;;;9.07;3.15;;;17.70;99.90;;;;;;7336361;32;20104;-62
2022/07/14 00:10:18;;;;;;;8.63;2.83;;;17.60;99.90;;;;;;7336758;32;20112;-62
2022/07/14 00:14:20;;;;;;;9.73;3.10;;;17.50;99.90;;;;;;7361998;32;20202;-62
2022/07/14 00:18:22;;;;;;;11.15;3.35;;;17.50;99.90;;;;;;7360906;32;20099;-63
2022/07/14 00:22:24;;;;;;;8.38;2.90;;;17.40;99.90;;;;;;7361231;32;20107;-62
2022/07/14 00:26:28;;;;;;;8.27;3.00;;;17.40;99.90;;;;;;7361479;32;20202;-62
2022/07/14 00:30:30;;;;;;;7.40;2.83;;;17.30;99.90;;;;;;7358714;32;20278;-63
2022/07/14 00:34:32;;;;;;;8.73;2.87;;;17.20;99.90;;;;;;7360938;32;20148;-63
2022/07/14 00:38:34;;;;;;;8.07;3.15;;;17.10;99.90;;;;;;7359968;32;20115;-62
2022/07/14 00:42:36;;;;;;;9.13;3.12;;;17.10;99.90;;;;;;7360101;32;20133;-62
2022/07/14 00:46:38;;;;;;;9.00;3.72;;;17.00;99.90;;;;;;7360285;32;20173;-62
2022/07/14 00:50:44;;;;;;;11.55;3.30;;;16.90;99.90;;;;;;7360187;32;20972;-62
2022/07/14 00:54:47;;;;;;;7.83;2.77;;;16.90;99.90;;;;;;7348713;32;20753;-62
2022/07/14 00:58:48;;;;;;;8.73;2.67;;;16.80;99.90;;;;;;7353760;32;20120;-62
2022/07/14 01:02:50;;;;;;;12.23;3.35;;;16.80;99.90;;;;;;7359808;32;20262;-63
2022/07/14 01:06:52;;;;;;;10.20;3.10;;;16.70;99.90;;;;;;7360486;32;20099;-62
2022/07/14 01:10:54;;;;;;;10.60;3.37;;;16.60;99.90;;;;;;7359419;32;20119;-62
2022/07/14 01:14:55;;;;;;;9.98;3.50;;;16.60;99.90;;;;;;7359654;32;20541;-63
2022/07/14 01:18:57;;;;;;;15.38;4.22;;;16.50;99.90;;;;;;7358795;32;20734;-62
2022/07/14 01:23:01;;;;;;;11.93;3.28;;;16.40;99.90;;;;;;7360035;32;20104;-63
2022/07/14 01:27:03;;;;;;;10.35;3.75;;;16.30;99.90;;;;;;7360302;32;20121;-63
2022/07/14 01:31:04;;;;;;;7.12;2.97;;;16.30;99.90;;;;;;7358793;32;20770;-63
2022/07/14 01:35:07;;;;;;;9.77;3.47;;;16.30;99.90;;;;;;7359261;32;20099;-62
2022/07/14 01:39:09;;;;;;;11.73;3.37;;;16.20;99.90;;;;;;7359013;32;20196;-62
2022/07/14 01:43:11;;;;;;;9.25;3.70;;;16.10;99.90;;;;;;7359611;32;20206;-62
2022/07/14 01:47:16;;;;;;;9.48;3.47;;;16.00;99.90;;;;;;7359142;32;20119;-62
2022/07/14 01:51:17;;;;;;;11.73;3.00;;;16.00;99.90;;;;;;7358448;32;20182;-62
2022/07/14 01:55:26;;;;;;;17.02;3.40;;;16.10;99.90;;;;;;7352298;32;20096;-62
2022/07/14 01:59:28;;;;;;;13.15;3.47;;;16.10;99.90;;;;;;7358043;32;20099;-62
2022/07/14 02:03:30;;;;;;;14.70;3.30;;;16.20;99.90;;;;;;7359251;32;20156;-62
2022/07/14 02:07:32;;;;;;;8.00;3.00;;;16.20;99.90;;;;;;7358009;32;20126;-61
2022/07/14 02:15:55;;;;;;;9.27;3.45;;;16.10;99.90;;;;;;7358724;32;20464;-62
2022/07/14 02:19:56;;;;;;;10.55;3.60;;;16.00;99.90;;;;;;7358152;32;20155;-63
2022/07/14 02:23:58;;;;;;;14.75;4.12;;;16.00;99.90;;;;;;7358760;32;20843;-62
2022/07/14 02:28:00;;;;;;;17.42;3.75;;;15.90;99.90;;;;;;7357824;32;20107;-62
2022/07/14 02:32:02;;;;;;;12.50;3.53;;;15.90;99.90;;;;;;7358716;32;20243;-61
2022/07/14 02:36:05;;;;;;;15.70;3.90;;;15.90;99.90;;;;;;7358143;32;20681;-60
2022/07/14 02:40:07;;;;;;;12.13;3.53;;;15.90;99.90;;;;;;7357822;32;20159;-61
2022/07/14 02:44:09;;;;;;;14.45;4.00;;;15.90;99.90;;;;;;7350554;32;20142;-60
2022/07/14 02:48:11;;;;;;;12.68;3.70;;;16.00;99.90;;;;;;7356258;32;20280;-61
2022/07/14 02:52:12;;;;;;;14.77;4.00;;;16.00;99.90;;;;;;7358229;32;20095;-61
2022/07/14 02:56:14;;;;;;;9.98;3.25;;;16.00;99.90;;;;;;7340524;32;20155;-61
2022/07/14 03:00:17;;;;;;;11.77;3.40;;;16.00;99.90;;;;;;7357310;32;20190;-60
2022/07/14 03:04:18;;;;;;;13.43;3.83;;;16.00;99.90;;;;;;7358104;32;20167;-60
2022/07/14 03:08:20;;;;;;;12.07;3.05;;;16.00;99.90;;;;;;7356907;32;20205;-61
2022/07/14 03:12:22;;;;;;;9.63;3.10;;;16.00;99.90;;;;;;7357848;32;20107;-60
2022/07/14 03:16:24;;;;;;;15.00;4.03;;;16.00;99.90;;;;;;7358018;32;20103;-61
2022/07/14 03:20:26;;;;;;;11.65;3.55;;;16.10;99.90;;;;;;7357534;32;20170;-60
2022/07/14 03:24:28;;;;;;;11.98;3.85;;;16.10;99.90;;;;;;7357619;32;20569;-61
2022/07/14 03:28:30;;;;;;;12.48;3.58;;;16.00;99.90;;;;;;7356296;32;20182;-61
2022/07/14 03:32:32;;;;;;;7.07;3.05;;;16.00;99.90;;;;;;7358072;32;20103;-60
2022/07/14 03:36:33;;;;;;;12.37;3.10;;;16.00;99.90;;;;;;7356922;32;20117;-60
2022/07/14 03:40:41;;;;;;;14.32;3.75;;;16.00;99.90;;;;;;7360998;32;20243;-61
2022/07/14 03:44:44;;;;;;;14.18;3.60;;;16.00;99.90;;;;;;7362085;32;20194;-60
2022/07/14 03:48:46;;;;;;;13.80;3.47;;;16.00;99.90;;;;;;7361420;32;20575;-61
2022/07/14 03:52:48;;;;;;;12.55;3.67;;;15.90;99.90;;;;;;7362022;32;20687;-60
2022/07/14 03:56:50;;;;;;;19.37;3.85;;;15.90;99.90;;;;;;7354599;32;20118;-60
2022/07/14 04:00:52;;;;;;;16.00;4.20;;;15.90;99.90;;;;;;7335377;32;20115;-61
2022/07/14 04:04:53;;;;;;;15.15;3.78;;;15.90;99.90;;;;;;7345789;32;20176;-60
2022/07/14 04:09:08;;;;;;;13.55;3.72;;;15.90;99.90;;;;;;7360451;32;20174;-60
2022/07/14 04:13:10;;;;;;;11.45;3.65;;;15.90;99.90;;;;;;7346517;32;20481;-60
2022/07/14 04:17:12;;;;;;;15.50;3.90;;;15.90;99.90;;;;;;7358703;32;20110;-60
2022/07/14 04:21:14;;;;;;;19.12;4.20;;;15.90;99.90;;;;;;7361220;32;20125;-60
2022/07/14 04:25:16;;;;;;;13.05;3.75;;;15.90;99.90;;;;;;7361069;32;20178;-60
2022/07/14 04:29:18;;;;;;;11.80;3.80;;;16.00;99.90;;;;;;7360986;32;20784;-60
2022/07/14 04:33:20;;;;;;;18.45;3.67;;;15.90;99.90;;;;;;7361253;32;20152;-61
2022/07/14 04:37:22;;;;;;;12.02;3.55;;;16.00;99.90;;;;;;7360747;32;20133;-61
2022/07/14 04:41:25;;;;;;;18.90;3.95;;;16.00;99.90;;;;;;7359958;32;20122;-60
2022/07/14 04:45:27;;;;;;;13.38;3.30;;;16.00;99.90;;;;;;7359414;32;20199;-60
2022/07/14 04:53:49;;;;;;;11.18;3.85;;;16.10;99.90;;;;;;7354301;32;20122;-64
2022/07/14 04:57:51;;;;;;;17.25;4.05;;;16.10;99.90;;;;;;7347922;32;20200;-65
2022/07/14 05:01:53;;;;;;;15.93;3.40;;;16.10;99.90;;;;;;7359398;32;20099;-64
2022/07/14 05:05:55;;;;;;;13.85;3.85;;;16.10;99.90;;;;;;7359321;32;20118;-65
2022/07/14 05:09:57;;;;;;;14.87;3.92;;;16.10;99.90;;;;;;7358813;32;20736;-65
2022/07/14 05:13:58;;;;;;;14.27;3.58;;;16.40;99.90;;;;;;7359708;32;20224;-64
2022/07/14 05:18:00;;;;;;;13.98;3.12;;;17.10;99.90;;;;;;7358941;32;20552;-65
2022/07/14 05:22:02;;;;;;;13.98;3.28;;;17.70;99.90;;;;;;7359839;32;20103;-66
2022/07/14 05:26:10;;;;;;;15.93;3.60;;;18.00;99.90;;;;;;7359810;32;20140;-65
2022/07/14 05:30:12;;;;;;;13.38;3.40;;;18.20;99.90;;;;;;7359063;32;20182;-65
2022/07/14 05:34:14;;;;;;;13.98;3.95;;;18.90;99.90;;;;;;7359477;32;20202;-65
2022/07/14 05:38:15;;;;;;;13.68;3.33;;;19.40;99.90;;;;;;7358474;32;20737;-66
2022/07/14 05:42:21;;;;;;;12.90;3.22;;;19.40;99.90;;;;;;7358616;32;20115;-65
2022/07/14 05:46:23;;;;;;;11.10;2.95;;;19.70;99.90;;;;;;7359058;32;20111;-65
2022/07/14 05:50:25;;;;;;;14.38;3.65;;;19.30;99.90;;;;;;7358220;32;20126;-65
2022/07/14 05:54:27;;;;;;;19.30;3.75;;;19.80;99.90;;;;;;7358618;32;20107;-65
2022/07/14 05:58:29;;;;;;;16.37;3.30;;;19.60;99.90;;;;;;7339883;32;20243;-65
2022/07/14 06:02:30;;;;;;;15.05;3.60;;;19.10;99.90;;;;;;7337903;32;20194;-67
2022/07/14 06:06:32;;;;;;;12.65;2.90;;;19.00;99.90;;;;;;7359317;32;20100;-66
2022/07/14 06:10:34;;;;;;;11.27;2.95;;;18.60;99.90;;;;;;7357435;32;20134;-66
2022/07/14 06:14:36;;;;;;;14.50;3.22;;;18.50;99.90;;;;;;7357235;32;20522;-66
2022/07/14 06:18:38;;;;;;;18.50;3.65;;;18.40;99.90;;;;;;7357472;32;20165;-65
2022/07/14 06:22:40;;;;;;;16.25;3.87;;;18.20;99.90;;;;;;7357780;32;20118;-68
2022/07/14 06:26:42;;;;;;;23.38;4.82;;;18.00;99.90;;;;;;7358172;32;20209;-66
2022/07/14 06:30:44;;;;;;;20.45;4.00;;;17.90;99.90;;;;;;7357765;32;20186;-68
2022/07/14 06:34:46;;;;;;;13.55;3.03;;;18.30;99.90;;;;;;7357709;32;20108;-67
2022/07/14 06:38:48;;;;;;;15.80;4.18;;;18.60;99.90;;;;;;7356920;32;20099;-66
2022/07/14 06:42:49;;;;;;;16.15;3.75;;;19.20;99.90;;;;;;7357653;32;20244;-66
2022/07/14 06:46:51;;;;;;;14.10;3.47;;;19.30;99.90;;;;;;7356231;32;20266;-66
2022/07/14 06:50:53;;;;;;;17.10;3.47;;;19.40;99.90;;;;;;7357302;32;20179;-66
2022/07/14 06:54:57;;;;;;;13.73;3.58;;;19.50;99.90;;;;;;7344875;32;20449;-66
2022/07/14 06:59:00;;;;;;;15.35;3.45;;;19.60;99.90;;;;;;7352597;32;20156;-66
2022/07/14 07:03:09;;;;;;;15.73;2.55;;;19.50;99.90;;;;;;7357200;32;20328;-67
2022/07/14 07:07:11;;;;;;;14.35;2.97;;;19.50;99.90;;;;;;7357493;32;20178;-67
2022/07/14 07:11:12;;;;;;;17.55;3.30;;;19.30;99.90;;;;;;7356391;32;20495;-67
2022/07/14 07:15:14;;;;;;;15.52;3.10;;;19.30;99.90;;;;;;7361654;32;20141;-66
2022/07/14 07:19:17;;;;;;;14.05;2.75;;;19.20;99.90;;;;;;7360867;32;20175;-66
2022/07/14 07:23:18;;;;;;;15.00;3.08;;;19.30;99.90;;;;;;7362263;32;20160;-66
2022/07/14 07:27:20;;;;;;;12.77;2.78;;;19.50;99.90;;;;;;7361992;32;20595;-66
2022/07/14 07:31:22;;;;;;;22.42;3.62;;;19.10;99.90;;;;;;7361363;32;20189;-66
2022/07/14 07:35:24;;;;;;;17.05;3.35;;;19.50;99.90;;;;;;7361603;32;20099;-66
2022/07/14 07:39:26;;;;;;;17.98;3.10;;;19.50;99.90;;;;;;7362070;32;20103;-66
2022/07/14 07:43:28;;;;;;;15.15;2.92;;;20.00;99.90;;;;;;7361653;32;20476;-66
2022/07/14 07:47:29;;;;;;;12.80;2.87;;;20.40;99.90;;;;;;7361531;32;20172;-66
2022/07/14 07:51:31;;;;;;;18.00;3.03;;;20.60;99.90;;;;;;7360927;32;20297;-67
2022/07/14 07:55:33;;;;;;;13.02;3.03;;;20.50;99.90;;;;;;7361437;32;20091;-66
2022/07/14 07:59:35;;;;;;;11.00;3.20;;;20.50;99.90;;;;;;7336194;32;20459;-66
2022/07/14 08:03:37;;;;;;;11.35;2.92;;;20.30;99.90;;;;;;7346026;32;20100;-66
2022/07/14 08:07:45;;;;;;;10.90;2.50;;;20.10;99.90;;;;;;7360414;32;20121;-66
2022/07/14 08:11:47;;;;;;;12.93;3.00;;;20.40;99.90;;;;;;7361528;32;20223;-66
2022/07/14 08:15:49;;;;;;;13.27;2.47;;;20.40;99.90;;;;;;7360690;32;20519;-66
2022/07/14 08:19:50;;;;;;;19.33;3.12;;;20.40;99.90;;;;;;7360262;32;20107;-67
2022/07/14 08:23:52;;;;;;;11.18;2.60;;;20.40;99.90;;;;;;7360605;32;20156;-67
2022/07/14 08:27:54;;;;;;;14.55;2.60;;;20.30;99.90;;;;;;7360461;32;20103;-67
2022/07/14 08:31:56;;;;;;;12.10;2.03;;;21.10;99.90;;;;;;7359902;32;20850;-66
2022/07/14 08:35:58;;;;;;;9.27;2.40;;;21.40;99.90;;;;;;7360538;32;20099;-67
2022/07/14 08:40:04;;;;;;;11.00;2.70;;;21.20;99.90;;;;;;7359393;32;20183;-66
2022/07/14 08:44:07;;;;;;;13.87;2.60;;;21.10;99.90;;;;;;7359830;32;20119;-67
2022/07/14 08:48:10;;;;;;;10.60;2.03;;;20.50;99.90;;;;;;7340413;32;20545;-67
2022/07/14 08:52:11;;;;;;;9.77;2.20;;;21.30;99.90;;;;;;7335018;32;20222;-67
2022/07/14 08:56:14;;;;;;;14.10;2.53;;;22.40;99.90;;;;;;7356472;32;20095;-66
2022/07/14 09:00:18;;;;;;;10.30;2.12;;;22.80;99.90;;;;;;7333805;32;20538;-66
2022/07/14 09:04:20;;;;;;;10.93;2.25;;;23.60;99.90;;;;;;7352893;32;20515;-67
2022/07/14 09:08:22;;;;;;;11.02;2.10;;;23.50;99.90;;;;;;7359161;32;20656;-65
2022/07/14 09:12:29;;;;;;;14.55;2.30;;;22.90;99.90;;;;;;7359784;32;20170;-65
2022/07/14 09:16:31;;;;;;;;;;;22.60;99.90;;;;;;7360612;32;20117;-66
2022/07/14 09:20:36;;;;;;;10.85;2.62;;;22.70;99.90;;;;;;7358708;32;20066;-66
2022/07/14 09:24:38;;;;;;;9.32;1.60;;;23.40;99.90;;;;;;7359261;32;20111;-66
2022/07/14 09:28:48;;;;;;;9.85;1.52;;;23.20;99.90;;;;;;7358634;32;20608;-66
2022/07/14 09:32:59;;;;;;;4.37;0.90;;;23.60;99.90;;;;;;7359782;32;20088;-65
2022/07/14 09:37:15;;;;;;;2.83;0.85;;;23.70;99.20;;;;;;7357912;32;20129;-66
2022/07/14 09:41:18;;;;;;;6.87;1.40;;;23.00;97.20;;;;;;7358601;32;20114;-67
2022/07/14 09:45:23;;;;;;;4.93;1.40;;;23.40;98.20;;;;;;7358457;32;20183;-67
2022/07/14 09:49:30;;;;;;;6.15;0.98;;;23.90;96.00;;;;;;7358387;32;20547;-66
2022/07/14 09:53:35;;;;;;;4.37;1.00;;;23.90;95.80;;;;;;7358678;32;20182;-67
2022/07/14 09:57:39;;;;;;;3.12;0.98;;;23.80;96.30;;;;;;7346039;32;20224;-66
2022/07/14 10:01:41;;;;;;;3.83;0.82;;;23.30;93.40;;;;;;7333513;32;20187;-67
2022/07/14 10:05:43;;;;;;;7.15;1.00;;;23.30;93.10;;;;;;7358964;32;20586;-67
2022/07/14 10:10:15;;;;;;;4.70;1.10;;;23.90;95.30;;;;;;7356326;32;20113;-65
2022/07/14 10:14:18;;;;;;;5.40;1.02;;;24.30;88.40;;;;;;7357919;32;20094;-68
2022/07/14 10:18:22;;;;;;;5.15;0.95;;;24.60;90.40;;;;;;7357276;32;20139;-65
2022/07/14 10:22:29;;;;;;;4.68;1.02;;;25.50;90.50;;;;;;7358557;32;20737;-66
2022/07/14 10:26:32;;;;;;;7.55;1.20;;;26.20;88.40;;;;;;7358356;32;20619;-65
2022/07/14 10:30:45;;;;;;;4.60;1.08;;;25.50;80.00;;;;;;7357405;32;20763;-66
2022/07/14 10:35:08;;;;;;;2.62;0.98;;;25.80;86.20;;;;;;7358199;32;20115;-66
2022/07/14 10:39:13;;;;;;;3.00;0.73;;;25.80;78.70;;;;;;7357431;32;20621;-66
2022/07/14 10:43:23;;;;;;;4.55;1.30;;;26.40;81.40;;;;;;7357860;32;20131;-66
2022/07/14 10:47:49;;;;;;;6.20;0.88;;;26.60;74.50;;;;;;7357616;32;20139;-67
2022/07/14 10:51:51;;;;;;;5.40;1.15;;;26.50;75.20;;;;;;7357449;32;20175;-66
2022/07/14 10:55:53;;;;;;;4.65;1.12;;;26.30;76.70;;;;;;7350225;32;20164;-67
2022/07/14 10:59:55;;;;;;;6.70;1.40;;;26.40;74.00;;;;;;7353217;32;20231;-66
2022/07/14 11:03:58;;;;;;;6.75;1.27;;;25.90;77.40;;;;;;7357261;32;20100;-66
2022/07/14 11:08:02;;;;;;;5.03;1.08;;;26.30;75.20;;;;;;7356860;32;20095;-67
2022/07/14 11:12:10;;;;;;;4.30;1.10;;;26.40;71.40;;;;;;7357686;32;20186;-66
2022/07/14 11:16:11;;;;;;;5.00;1.27;;;26.20;73.80;;;;;;7357609;32;20115;-67
2022/07/14 11:20:16;;;;;;;7.47;1.55;;;26.20;72.30;;;;;;7356973;32;20167;-66
2022/07/14 11:24:19;;;;;;;8.43;1.37;;;26.00;69.10;;;;;;7357562;32;20095;-66
2022/07/14 11:28:48;;;;;;;6.65;1.40;;;25.70;72.80;;;;;;7356671;32;20103;-67
2022/07/14 11:33:08;;;;;;;5.57;1.33;;;25.70;73.10;;;;;;7357459;32;20425;-66
2022/07/14 11:37:10;;;;;;;4.22;1.12;;;25.60;74.10;;;;;;7355879;32;20351;-66
2022/07/14 11:42:12;;;;;;;5.65;1.20;;;25.80;74.30;;;;;;7357345;32;20220;-66
2022/07/14 11:46:15;;;;;;;6.50;1.00;;;25.80;72.70;;;;;;7330415;32;20123;-66
2022/07/14 11:50:22;;;;;;;5.87;1.20;;;25.70;75.00;;;;;;7330375;32;20176;-66
2022/07/14 11:54:25;;;;;;;;;;;25.90;72.40;;;;;;7347712;32;20096;-67
2022/07/14 11:58:29;;;;;;;6.00;1.10;;;25.90;72.50;;;;;;7338968;32;20026;-65
2022/07/14 12:02:31;;;;;;;4.03;1.15;;;25.80;70.40;;;;;;7338965;32;20121;-66
2022/07/14 12:06:40;;;;;;;7.20;1.45;;;25.80;73.50;;;;;;7361873;32;20123;-67
2022/07/14 12:10:42;;;;;;;7.37;1.20;;;25.70;71.20;;;;;;7360922;32;20150;-66
2022/07/14 12:14:45;;;;;;;4.53;1.08;;;25.40;70.80;;;;;;7361352;32;20524;-66
2022/07/14 12:18:57;;;;;;;8.15;1.15;;;25.40;72.00;;;;;;7360626;32;20127;-66
2022/07/14 12:22:59;;;;;;;3.10;1.05;;;25.40;72.10;;;;;;7361178;32;20534;-66
2022/07/14 12:27:06;;;;;;;6.30;0.90;;;25.70;72.10;;;;;;7361284;32;20465;-66
2022/07/14 12:31:09;;;;;;;5.12;1.05;;;25.80;68.10;;;;;;7360724;32;20514;-66
2022/07/14 12:35:11;;;;;;;5.15;1.35;;;25.90;66.90;;;;;;7360690;32;20463;-67
2022/07/14 12:39:13;;;;;;;5.20;1.58;;;25.70;68.70;;;;;;7359861;32;20277;-66
2022/07/14 12:43:15;;;;;;;5.45;1.23;;;25.60;69.70;;;;;;7360869;32;20132;-66
2022/07/14 12:47:17;;;;;;;5.07;1.00;;;25.90;70.80;;;;;;7360954;32;20127;-66
2022/07/14 12:51:21;;;;;;;3.87;1.20;;;25.60;69.20;;;;;;7359889;32;20515;-66
2022/07/14 12:55:36;;;;;;;5.50;1.12;;;25.30;69.30;;;;;;7344687;32;20198;-66
2022/07/14 12:59:38;;;;;;;4.45;1.10;;;25.10;71.70;;;;;;7358812;32;20125;-66
2022/07/14 13:03:39;;;;;;;7.80;1.27;;;25.20;69.40;;;;;;7359611;32;20150;-65
2022/07/14 13:07:41;;;;;;;3.37;0.90;;;24.90;70.50;;;;;;7359013;32;20184;-67
2022/07/14 13:11:47;;;;;;;4.03;1.10;;;25.10;70.40;;;;;;7359206;32;20298;-67
2022/07/14 13:15:48;;;;;;;3.65;0.80;;;25.20;69.70;;;;;;7359265;32;20731;-64
2022/07/14 13:19:50;;;;;;;6.53;0.93;;;25.10;69.10;;;;;;7358913;32;20175;-65
2022/07/14 13:23:52;;;;;;;4.32;1.00;;;25.30;71.20;;;;;;7358919;32;20156;-65
2022/07/14 13:27:54;;;;;;;7.90;1.48;;;25.50;68.60;;;;;;7358344;32;20174;-65
2022/07/14 13:31:56;;;;;;;3.67;1.20;;;25.80;68.40;;;;;;7358740;32;20143;-65
2022/07/14 13:36:00;;;;;;;8.20;1.37;;;25.70;70.30;;;;;;7358402;32;20558;-65
2022/07/14 13:40:02;;;;;;;4.32;1.10;;;25.50;70.60;;;;;;7358025;32;20286;-65
2022/07/14 13:44:04;;;;;;;2.47;0.90;;;25.00;72.40;;;;;;7358440;32;20568;-65
2022/07/14 13:48:06;;;;;;;3.20;1.12;;;25.00;73.50;;;;;;7358199;32;20107;-65
2022/07/14 13:52:08;;;;;;;6.18;1.10;;;25.90;72.50;;;;;;7358412;32;20217;-65
2022/07/14 13:56:10;;;;;;;4.47;0.90;;;26.70;68.80;;;;;;7354880;32;20100;-65
2022/07/14 14:00:13;;;;;;;5.72;1.00;;;26.60;72.10;;;;;;7332333;32;20104;-65
2022/07/14 14:04:14;;;;;;;4.07;1.10;;;26.40;70.70;;;;;;7344046;32;20115;-65
2022/07/14 14:08:28;;;;;;;3.85;1.08;;;26.20;70.00;;;;;;7356815;32;20099;-65
2022/07/14 14:12:29;;;;;;;8.18;1.50;;;25.80;72.60;;;;;;7356364;32;20152;-66
2022/07/14 14:16:31;;;;;;;7.10;1.00;;;25.50;74.00;;;;;;7358267;32;20185;-65
2022/07/14 14:20:33;;;;;;;6.65;1.23;;;24.90;74.10;;;;;;7356728;32;20190;-65
2022/07/14 14:24:35;;;;;;;6.35;1.17;;;25.10;74.00;;;;;;7356881;32;20111;-65
2022/07/14 14:28:37;;;;;;;3.97;0.90;;;25.00;73.60;;;;;;7356395;32;20095;-65
2022/07/14 14:32:38;;;;;;;5.07;1.00;;;24.80;73.60;;;;;;7357704;32;20175;-65
2022/07/14 14:36:41;;;;;;;5.47;1.25;;;24.50;75.60;;;;;;7357833;32;20127;-65
2022/07/14 14:40:43;;;;;;;4.40;1.15;;;24.90;75.40;;;;;;7356830;32;20304;-65
2022/07/14 14:44:45;;;;;;;6.82;1.37;;;24.80;74.40;;;;;;7356809;32;20119;-65
2022/07/14 14:48:47;;;;;;;4.97;1.00;;;24.50;78.10;;;;;;7356029;32;20096;-66
2022/07/14 14:53:04;;;;;;;3.60;1.08;;;24.20;79.10;;;;;;7356383;32;20923;-65
2022/07/14 14:57:06;;;;;;;2.87;1.20;;;24.00;78.30;;;;;;7340375;32;20163;-65
2022/07/14 15:01:08;;;;;;;6.93;1.08;;;24.10;77.90;;;;;;7356467;32;20186;-65
2022/07/14 15:05:11;;;;;;;3.72;1.10;;;23.80;79.40;;;;;;7356885;32;20190;-65
2022/07/14 15:09:12;;;;;;;4.65;1.08;;;24.20;79.20;;;;;;7356620;32;20752;-65
2022/07/14 15:13:14;;;;;;;4.07;1.20;;;24.60;75.80;;;;;;7356843;32;20127;-65
2022/07/14 15:17:17;;;;;;;3.47;0.80;;;24.50;76.50;;;;;;7357272;32;20099;-65
2022/07/14 15:21:19;;;;;;;6.82;1.10;;;24.10;76.20;;;;;;7357139;32;20099;-65
2022/07/14 15:25:21;;;;;;;3.85;1.20;;;24.10;79.30;;;;;;7357830;32;20099;-65
2022/07/14 15:29:22;;;;;;;4.43;1.00;;;23.80;80.00;;;;;;7356340;32;20107;-65
2022/07/14 15:33:28;;;;;;;4.47;0.98;;;23.50;79.00;;;;;;7357136;32;20133;-65
2022/07/14 15:37:29;;;;;;;5.40;1.00;;;23.40;82.50;;;;;;7361499;32;20111;-65
2022/07/14 15:41:34;;;;;;;4.30;1.15;;;22.80;80.70;;;;;;7362327;32;20160;-65
2022/07/14 15:45:36;;;;;;;3.17;1.00;;;22.90;81.60;;;;;;7361532;32;20114;-65
2022/07/14 15:49:38;;;;;;;4.95;0.98;;;23.20;81.60;;;;;;7360995;32;20125;-65
2022/07/14 15:53:40;;;;;;;2.05;0.82;;;23.30;81.70;;;;;;7355454;32;20243;-65
2022/07/14 15:57:42;;;;;;;3.45;1.10;;;23.60;78.70;;;;;;7348188;32;20155;-65
2022/07/14 16:01:43;;;;;;;3.20;0.93;;;23.70;77.60;;;;;;7361901;32;20190;-65
2022/07/14 16:05:46;;;;;;;6.28;0.80;;;23.50;78.30;;;;;;7362009;32;20159;-65
2022/07/14 16:09:48;;;;;;;3.90;1.00;;;23.50;80.00;;;;;;7360926;32;20104;-65
2022/07/14 16:13:49;;;;;;;3.17;0.80;;;23.50;77.60;;;;;;7360696;32;20119;-65
2022/07/14 16:17:51;;;;;;;7.78;1.08;;;23.80;76.60;;;;;;7360577;32;20136;-66
2022/07/14 16:21:53;;;;;;;3.90;0.65;;;23.70;76.30;;;;;;7361613;32;20198;-66
2022/07/14 16:25:56;;;;;;;4.40;0.98;;;23.50;78.70;;;;;;7360521;32;20126;-65
2022/07/14 16:29:57;;;;;;;3.30;0.90;;;23.30;78.00;;;;;;7359880;32;20107;-65
2022/07/14 16:33:59;;;;;;;2.70;0.88;;;23.20;77.30;;;;;;7360379;32;20476;-65
2022/07/14 16:38:01;;;;;;;2.92;0.77;;;23.30;77.50;;;;;;7360075;32;20598;-66
2022/07/14 16:42:03;;;;;;;2.37;0.73;;;23.30;78.50;;;;;;7359858;32;20199;-65
2022/07/14 16:46:05;;;;;;;5.55;0.88;;;23.20;77.50;;;;;;7360535;32;20539;-65
2022/07/14 16:50:09;;;;;;;6.85;1.20;;;23.30;77.10;;;;;;7359788;32;20171;-65
2022/07/14 16:54:10;;;;;;;3.17;1.00;;;23.50;79.30;;;;;;7360447;32;20214;-66
2022/07/14 16:58:14;;;;;;;2.08;0.73;;;23.70;78.30;;;;;;7343591;32;20132;-66
2022/07/14 17:02:20;;;;;;;5.30;1.20;;;23.70;76.50;;;;;;7349113;32;20092;-65
2022/07/14 17:06:23;;;;;;;3.10;0.82;;;23.30;76.90;;;;;;7360735;32;20118;-65
2022/07/14 17:10:24;;;;;;;2.45;0.75;;;23.20;79.80;;;;;;7358953;32;20198;-65
2022/07/14 17:14:26;;;;;;;3.67;0.98;;;23.00;79.00;;;;;;7359991;32;20099;-65
2022/07/14 17:18:28;;;;;;;5.60;1.00;;;22.90;79.80;;;;;;7359227;32;20186;-65
2022/07/14 17:22:30;;;;;;;3.25;0.65;;;22.70;79.40;;;;;;7359987;32;20100;-65
2022/07/14 17:26:32;;;;;;;4.47;0.90;;;22.80;80.50;;;;;;7358984;32;20118;-65
2022/07/14 17:30:34;;;;;;;3.83;1.00;;;22.90;79.20;;;;;;7358185;32;20916;-65
2022/07/14 17:34:35;;;;;;;6.65;0.90;;;23.00;80.00;;;;;;7359593;32;20225;-65
2022/07/14 17:38:37;;;;;;;6.03;1.00;;;23.10;79.80;;;;;;7358713;32;20099;-63
2022/07/14 17:42:40;;;;;;;3.80;1.15;;;23.00;80.30;;;;;;7358625;32;20126;-64
2022/07/14 17:46:41;;;;;;;5.22;1.00;;;22.70;80.80;;;;;;7359484;32;20126;-65
2022/07/14 17:50:45;;;;;;;6.40;1.65;;;22.50;81.80;;;;;;7357575;32;20190;-65
2022/07/14 17:54:47;;;;;;;5.75;1.27;;;22.30;82.70;;;;;;7347038;32;20187;-65
2022/07/14 17:58:48;;;;;;;3.42;0.90;;;22.10;82.40;;;;;;7350381;32;20500;-64
2022/07/14 18:02:51;;;;;;;4.32;1.12;;;22.00;82.90;;;;;;7358366;32;20187;-65
2022/07/14 18:06:52;;;;;;;3.70;1.05;;;22.00;83.20;;;;;;7358513;32;20100;-65
2022/07/14 18:10:56;;;;;;;3.58;1.00;;;21.80;84.10;;;;;;7357869;32;20131;-65
2022/07/14 18:14:57;;;;;;;6.15;1.23;;;21.60;85.20;;;;;;7357069;32;20119;-65
2022/07/14 18:18:59;;;;;;;3.28;1.10;;;21.40;87.00;;;;;;7357288;32;20171;-65
2022/07/14 18:23:01;;;;;;;4.18;0.88;;;21.20;87.00;;;;;;7358710;32;20152;-65
2022/07/14 18:27:04;;;;;;;5.53;1.02;;;21.20;87.20;;;;;;7359018;32;20189;-65
2022/07/14 18:31:06;;;;;;;7.30;1.50;;;21.20;89.00;;;;;;7357464;32;20126;-65
2022/07/14 18:35:08;;;;;;;4.10;1.10;;;21.00;88.20;;;;;;7358840;32;20103;-65
2022/07/14 18:39:10;;;;;;;3.47;0.98;;;21.00;90.00;;;;;;7356924;32;20103;-65
2022/07/14 18:43:12;;;;;;;5.65;1.33;;;20.90;90.10;;;;;;7358041;32;20108;-65
2022/07/14 18:47:14;;;;;;;2.60;0.88;;;20.80;90.40;;;;;;7357754;32;20263;-65
2022/07/14 18:51:18;;;;;;;1.90;0.90;;;20.80;90.30;;;;;;7356947;32;20435;-65
2022/07/14 18:55:20;;;;;;;3.53;0.90;;;20.90;90.60;;;;;;7357785;32;20123;-65
2022/07/14 18:59:22;;;;;;;5.03;0.95;;;20.70;90.90;;;;;;7340392;32;20118;-65
2022/07/14 19:03:25;;;;;;;3.80;0.90;;;20.60;90.70;;;;;;7357465;32;20127;-65
2022/07/14 19:07:27;;;;;;;5.05;0.95;;;20.50;91.90;;;;;;7357766;32;20128;-68
2022/07/14 19:11:29;;;;;;;3.60;0.98;;;20.40;92.40;;;;;;7362366;32;20114;-65
2022/07/14 19:15:31;;;;;;;5.20;1.00;;;20.20;93.00;;;;;;7362846;32;20119;-65
2022/07/14 19:19:33;;;;;;;2.50;0.70;;;20.00;93.70;;;;;;7362021;32;20737;-65
2022/07/14 19:23:35;;;;;;;2.80;0.90;;;19.90;94.30;;;;;;7362590;32;20516;-65
2022/07/14 19:27:38;;;;;;;6.18;1.10;;;19.70;95.60;;;;;;7362242;32;20174;-65
2022/07/14 19:31:40;;;;;;;5.07;1.00;;;19.60;96.50;;;;;;7362183;32;20123;-65
2022/07/14 19:35:42;;;;;;;5.10;1.35;;;19.40;97.00;;;;;;7362318;32;20728;-65
2022/07/14 19:39:43;;;;;;;4.25;1.10;;;19.40;97.40;;;;;;7361210;32;20269;-65
2022/07/14 19:43:45;;;;;;;3.87;1.00;;;19.30;98.80;;;;;;7362560;32;20156;-66
2022/07/14 19:47:47;;;;;;;6.43;1.20;;;19.10;99.40;;;;;;7361802;32;20156;-65
2022/07/14 19:51:49;;;;;;;3.80;0.90;;;19.10;99.40;;;;;;7361699;32;20115;-65
2022/07/14 19:55:51;;;;;;;3.28;1.20;;;18.90;99.90;;;;;;7343916;32;20211;-61
2022/07/14 19:59:58;;;;;;;2.80;1.12;;;18.80;99.90;;;;;;7354889;32;20103;-63
2022/07/14 20:04:20;;;;;;;5.15;1.20;;;18.60;99.90;;;;;;7342878;32;20485;-61
2022/07/14 20:08:21;;;;;;;3.80;1.37;;;18.40;99.90;;;;;;7359358;32;20258;-61
2022/07/14 20:12:23;;;;;;;4.07;1.23;;;18.30;99.90;;;;;;7358803;32;20201;-61
2022/07/14 20:16:25;;;;;;;3.25;1.25;;;18.10;99.90;;;;;;7362405;32;20803;-62
2022/07/14 20:20:27;;;;;;;5.70;1.35;;;17.90;99.90;;;;;;7359824;32;20099;-61
2022/07/14 20:24:35;;;;;;;7.47;1.55;;;17.70;99.90;;;;;;7362248;32;20148;-61
2022/07/14 20:33:02;;;;;;;5.32;1.60;;;17.30;99.90;;;;;;7362198;32;20130;-62
2022/07/14 20:37:04;;;;;;;3.12;1.20;;;17.30;99.90;;;;;;7361879;32;20149;-62
2022/07/14 20:41:06;;;;;;;7.32;1.20;;;17.30;99.90;;;;;;7360629;32;20196;-61
2022/07/14 20:45:13;;;;;;;3.58;1.05;;;17.20;99.90;;;;;;7361072;32;20507;-62
2022/07/14 20:49:15;;;;;;;3.17;1.02;;;17.10;99.90;;;;;;7360654;32;20119;-62
2022/07/14 20:53:17;;;;;;;2.22;0.80;;;17.10;99.90;;;;;;7347360;32;20461;-62
2022/07/14 20:57:19;;;;;;;1.87;0.82;;;17.00;99.90;;;;;;7353802;32;20176;-63
2022/07/14 21:01:22;;;;;;;8.43;1.10;;;17.00;99.90;;;;;;7358447;32;20156;-61
2022/07/14 21:05:24;;;;;;;9.85;1.17;;;16.90;99.90;;;;;;7338752;32;20867;-62
2022/07/14 21:09:26;;;;;;;3.83;1.10;;;16.70;99.90;;;;;;7359729;32;20107;-61
2022/07/14 21:13:28;;;;;;;4.03;1.33;;;16.60;99.90;;;;;;7360998;32;20119;-61